Time;durP1;ratioP1;P1;durP2;ratioP2;P2;SDS_P1;SDS_P2;PMS_P1;PMS_P2;Temp;Humidity;BMP_temperature;BMP_pressure;BME280_temperature;BME280_humidity;BME280_pressure;Samples;Min_cycle;Max_cycle;Signal;HPM_P1;HPM_P2
2023/02/14 00:01:54;;;;;;;3.25;2.65;;;;;;;1.77;100.00;100620.78;5087528;28;20071;-93
2023/02/14 00:04:21;;;;;;;4.05;2.90;;;;;;;1.47;100.00;100589.91;5088070;28;20036;-91
2023/02/14 00:06:48;;;;;;;3.60;2.85;;;;;;;1.46;100.00;100605.59;5088576;28;20127;-93
2023/02/14 00:09:16;;;;;;;3.40;2.65;;;;;;;1.35;100.00;100587.72;5088480;28;20111;-93
2023/02/14 00:11:42;;;;;;;3.97;2.80;;;;;;;1.39;100.00;100594.88;5088682;28;20048;-94
2023/02/14 00:17:09;;;;;;;3.83;3.20;;;;;;;1.55;100.00;100595.47;5088449;27;20724;-91
2023/02/14 00:19:35;;;;;;;2.83;2.50;;;;;;;1.41;100.00;100614.16;5088948;28;20101;-91
2023/02/14 00:22:02;;;;;;;3.65;2.85;;;;;;;1.48;100.00;100624.91;5089237;28;20039;-92
2023/02/14 00:24:28;;;;;;;3.75;2.83;;;;;;;1.46;100.00;100621.31;5088570;28;20043;-93
2023/02/14 00:26:54;;;;;;;3.70;3.15;;;;;;;1.41;100.00;100619.41;5089381;28;20143;-93
2023/02/14 00:29:22;;;;;;;3.33;2.75;;;;;;;1.48;100.00;100620.56;5089300;28;20040;-92
2023/02/14 00:31:48;;;;;;;3.40;2.88;;;;;;;1.35;100.00;100607.81;5088154;28;20518;-93
2023/02/14 00:34:16;;;;;;;3.58;3.00;;;;;;;1.17;100.00;100601.00;5088140;28;20068;-92
2023/02/14 00:36:43;;;;;;;2.80;2.50;;;;;;;1.05;100.00;100608.34;5088723;28;20052;-92
2023/02/14 00:39:11;;;;;;;3.08;2.70;;;;;;;1.07;100.00;100632.88;5088856;28;20046;-92
2023/02/14 00:41:37;;;;;;;4.10;3.20;;;;;;;1.24;100.00;100628.34;5089140;28;20886;-93
2023/02/14 00:44:03;;;;;;;4.10;3.45;;;;;;;1.49;100.00;100634.53;5088217;28;20068;-92
2023/02/14 00:46:29;;;;;;;4.07;3.25;;;;;;;1.43;100.00;100616.84;5088104;28;20033;-93
2023/02/14 00:48:55;;;;;;;4.57;3.30;;;;;;;1.31;100.00;100617.25;5088508;28;20094;-91
2023/02/14 00:51:23;;;;;;;3.50;3.05;;;;;;;1.27;100.00;100628.44;5088521;28;20555;-92
2023/02/14 00:53:50;;;;;;;3.83;3.10;;;;;;;1.08;100.00;100623.28;5088550;28;20040;-92
2023/02/14 00:56:17;;;;;;;5.53;3.25;;;;;;;0.99;100.00;100626.44;5088704;28;20048;-93
2023/02/14 00:58:43;;;;;;;5.53;3.28;;;;;;;0.87;100.00;100613.72;5089031;28;20059;-92
2023/02/14 01:01:10;;;;;;;3.78;3.15;;;;;;;1.00;100.00;100646.56;5088009;28;20404;-93
2023/02/14 01:03:36;;;;;;;3.95;3.50;;;;;;;0.89;100.00;100645.19;5087140;28;20033;-93
2023/02/14 01:06:03;;;;;;;5.00;3.42;;;;;;;0.75;100.00;100618.44;5088360;28;20497;-92
2023/02/14 01:08:30;;;;;;;4.22;3.40;;;;;;;0.78;100.00;100623.81;5087726;28;20140;-93
2023/02/14 01:10:56;;;;;;;3.78;3.10;;;;;;;0.73;100.00;100615.75;5088872;28;20131;-91
2023/02/14 01:13:23;;;;;;;4.07;3.50;;;;;;;0.73;100.00;100604.41;5089114;28;20136;-92
2023/02/14 01:15:50;;;;;;;4.30;3.20;;;;;;;0.75;100.00;100601.00;5087372;28;20044;-91
2023/02/14 01:18:18;;;;;;;3.95;2.90;;;;;;;0.87;100.00;100629.44;5088564;28;20036;-92
2023/02/14 01:20:44;;;;;;;4.50;3.05;;;;;;;0.76;100.00;100620.22;5086502;28;20032;-93
2023/02/14 01:23:10;;;;;;;3.53;2.95;;;;;;;0.72;100.00;100613.09;5088299;28;20040;-91
2023/02/14 01:25:38;;;;;;;3.50;3.00;;;;;;;0.63;100.00;100597.91;5086860;28;20047;-93
2023/02/14 01:28:04;;;;;;;3.80;3.40;;;;;;;0.70;100.00;100604.28;5076841;28;20044;-91
2023/02/14 01:30:30;;;;;;;3.92;3.33;;;;;;;0.64;100.00;100599.66;5073905;28;20045;-91
2023/02/14 01:32:56;;;;;;;3.63;2.97;;;;;;;0.67;100.00;100606.75;5074631;28;20053;-92
2023/02/14 01:35:22;;;;;;;3.53;3.20;;;;;;;0.71;100.00;100613.91;5074531;28;20440;-92
2023/02/14 01:37:48;;;;;;;4.38;3.40;;;;;;;0.71;100.00;100609.56;5074588;28;20044;-92
2023/02/14 01:40:16;;;;;;;4.40;3.33;;;;;;;0.79;100.00;100618.63;5074738;28;20033;-93
2023/02/14 01:42:43;;;;;;;4.18;3.03;;;;;;;0.72;100.00;100607.84;5074713;28;20044;-92
2023/02/14 01:45:16;;;;;;;4.00;3.30;;;;;;;0.61;100.00;100608.28;5073338;28;20033;-92
2023/02/14 01:47:45;;;;;;;4.30;3.60;;;;;;;0.46;100.00;100580.59;5074625;28;20051;-91
2023/02/14 01:50:14;;;;;;;4.35;3.50;;;;;;;0.62;100.00;100614.41;5074744;28;20036;-92
2023/02/14 01:52:43;;;;;;;3.90;3.28;;;;;;;0.58;100.00;100607.25;5073416;28;20524;-93
2023/02/14 01:55:13;;;;;;;3.83;3.30;;;;;;;0.61;100.00;100618.75;5074305;28;20040;-91
2023/02/14 01:57:46;;;;;;;4.57;3.38;;;;;;;0.55;100.00;100608.03;5074448;28;20037;-93
2023/02/14 02:03:15;;;;;;;4.38;3.67;;;;;;;0.53;100.00;100588.75;5090522;27;20723;-92
2023/02/14 02:05:44;;;;;;;4.15;3.50;;;;;;;0.58;100.00;100592.44;5088892;28;20048;-91
2023/02/14 02:08:11;;;;;;;4.00;3.40;;;;;;;0.53;100.00;100595.72;5087194;28;20040;-93
2023/02/14 02:10:37;;;;;;;4.10;3.38;;;;;;;0.47;100.00;100584.97;5089810;28;20041;-92
2023/02/14 02:13:06;;;;;;;4.18;3.53;;;;;;;0.38;100.00;100570.66;5089992;28;20046;-93
2023/02/14 02:15:40;;;;;;;4.85;4.18;;;;;;;0.48;100.00;100577.19;5088572;28;20040;-93
2023/02/14 02:18:14;;;;;;;4.32;3.53;;;;;;;0.69;100.00;100579.78;5089529;28;20486;-92
2023/02/14 02:21:13;;;;;;;4.45;3.53;;;;;;;1.17;100.00;100597.44;5085862;28;20040;-90
2023/02/14 02:24:04;;;;;;;4.43;3.55;;;;;;;1.42;100.00;100575.75;5089002;28;20490;-93
2023/02/14 02:26:59;;;;;;;4.07;3.50;;;;;;;1.56;100.00;100584.13;5088292;28;20066;-92
2023/02/14 02:30:05;;;;;;;3.97;3.47;;;;;;;1.59;100.00;100586.88;5088288;28;20405;-93
2023/02/14 02:32:58;;;;;;;4.32;3.65;;;;;;;1.53;100.00;100571.78;5088254;28;20465;-91
2023/02/14 02:35:41;;;;;;;4.25;3.40;;;;;;;1.44;100.00;100588.06;5088438;28;20071;-92
2023/02/14 02:38:21;;;;;;;3.80;3.15;;;;;;;1.34;100.00;100571.91;5087444;28;20103;-91
2023/02/14 02:40:56;;;;;;;4.53;3.38;;;;;;;1.49;100.00;100577.75;5087635;28;20040;-93
2023/02/14 02:43:42;;;;;;;4.22;3.50;;;;;;;1.32;100.00;100569.22;5088876;28;20456;-94
2023/02/14 02:58:49;;;;;;;4.25;3.60;;;;;;;0.48;100.00;100571.03;5099345;27;20382;-93
2023/02/14 03:01:20;;;;;;;5.38;3.63;;;;;;;0.31;100.00;100559.88;5083614;28;20075;-91
2023/02/14 03:06:51;;;;;;;4.50;3.83;;;;;;;0.24;100.00;100578.75;5070544;28;20360;-93
2023/02/14 03:09:51;;;;;;;5.82;4.15;;;;;;;0.20;100.00;100578.63;5069250;28;20045;-93
2023/02/14 03:12:40;;;;;;;4.47;4.05;;;;;;;0.07;100.00;100578.03;5068909;28;20094;-93
2023/02/14 03:15:14;;;;;;;5.30;4.60;;;;;;;0.06;100.00;100578.84;5066735;28;20628;-92
2023/02/14 03:17:50;;;;;;;4.93;4.20;;;;;;;0.01;100.00;100586.47;5068338;28;20040;-93
2023/02/14 03:20:22;;;;;;;5.25;4.20;;;;;;;-0.12;100.00;100566.72;5068773;28;20041;-93
2023/02/14 03:22:55;;;;;;;4.97;4.10;;;;;;;-0.09;100.00;100566.84;5068897;28;20043;-92
2023/02/14 03:25:39;;;;;;;6.40;4.55;;;;;;;0.19;100.00;100595.13;5069043;28;20059;-92
2023/02/14 03:28:14;;;;;;;5.85;3.92;;;;;;;-0.05;100.00;100567.91;5068529;28;20552;-90
2023/02/14 03:30:52;;;;;;;5.43;4.70;;;;;;;-0.09;100.00;100587.78;5067581;28;20037;-92
2023/02/14 03:33:22;;;;;;;6.03;4.55;;;;;;;-0.27;100.00;100561.72;5069298;28;20541;-92
2023/02/14 03:35:55;;;;;;;5.03;3.85;;;;;;;-0.13;100.00;100571.88;5068499;28;20040;-92
2023/02/14 03:38:29;;;;;;;4.90;4.20;;;;;;;-0.14;100.00;100581.47;5068982;28;20119;-92
2023/02/14 03:41:00;;;;;;;5.88;4.40;;;;;;;-0.16;100.00;100595.28;5068087;28;20052;-92
2023/02/14 03:43:30;;;;;;;5.72;4.68;;;;;;;-0.28;100.00;100577.34;5068366;28;20052;-93
2023/02/14 03:46:02;;;;;;;5.65;4.60;;;;;;;-0.29;100.00;100588.59;5067402;28;20075;-93
2023/02/14 03:48:32;;;;;;;5.43;4.47;;;;;;;-0.40;100.00;100580.28;5068727;28;20041;-93
2023/02/14 03:50:58;;;;;;;6.47;4.35;;;;;;;-0.28;100.00;100561.66;5068509;28;20493;-92
2023/02/14 03:53:30;;;;;;;5.72;4.40;;;;;;;-0.04;100.00;100590.63;5068590;28;20028;-94
2023/02/14 03:56:02;;;;;;;5.78;4.90;;;;;;;0.02;100.00;100582.13;5068532;28;20049;-93
2023/02/14 03:58:33;;;;;;;6.55;4.95;;;;;;;-0.03;100.00;100566.25;5067663;28;20205;-92
2023/02/14 04:01:07;;;;;;;6.25;4.65;;;;;;;-0.01;100.00;100570.72;5066114;28;20036;-91
2023/02/14 04:03:37;;;;;;;6.20;5.18;;;;;;;-0.06;100.00;100587.94;5067193;28;20406;-92
2023/02/14 04:06:04;;;;;;;5.88;5.00;;;;;;;-0.15;100.00;100582.31;5068056;28;20045;-91
2023/02/14 04:08:31;;;;;;;6.03;5.30;;;;;;;-0.46;100.00;100557.34;5067929;28;20043;-92
2023/02/14 04:11:00;;;;;;;7.28;5.30;;;;;;;-0.47;100.00;100567.75;5067358;28;20406;-92
2023/02/14 04:13:26;;;;;;;6.57;5.30;;;;;;;-0.29;100.00;100592.13;5066952;28;20128;-92
2023/02/14 04:15:52;;;;;;;6.93;6.03;;;;;;;-0.30;100.00;100589.44;5065566;28;21056;-91
2023/02/14 04:21:17;;;;;;;6.63;5.80;;;;;;;-0.60;100.00;100562.78;5107432;27;20374;-92
2023/02/14 04:23:43;;;;;;;7.47;5.68;;;;;;;-0.50;100.00;100576.34;5090391;28;20383;-92
2023/02/14 04:26:09;;;;;;;7.22;5.50;;;;;;;-0.47;100.00;100576.50;5093362;28;20037;-91
2023/02/14 04:28:35;;;;;;;8.52;5.68;;;;;;;-0.39;100.00;100584.69;5092324;28;20044;-93
2023/02/14 04:31:02;;;;;;;5.63;5.03;;;;;;;-0.54;100.00;100565.66;5092663;28;20489;-93
2023/02/14 04:33:28;;;;;;;5.75;4.63;;;;;;;-0.71;100.00;100557.06;5095793;28;20098;-93
2023/02/14 04:35:54;;;;;;;7.53;5.15;;;;;;;-0.68;100.00;100578.09;5097801;28;20052;-93
2023/02/14 04:38:21;;;;;;;6.80;4.78;;;;;;;-0.81;100.00;100555.72;5102701;28;20044;-92
2023/02/14 04:40:48;;;;;;;5.85;4.75;;;;;;;-0.94;100.00;100549.03;5096648;28;20090;-93
2023/02/14 04:43:13;;;;;;;7.32;4.93;;;;;;;-0.85;100.00;100582.50;5097625;28;20036;-93
2023/02/14 04:45:39;;;;;;;6.35;4.78;;;;;;;-0.83;100.00;100568.69;5094536;28;20462;-93
2023/02/14 04:48:05;;;;;;;6.35;5.30;;;;;;;-0.83;100.00;100581.75;5093378;28;20046;-93
2023/02/14 04:50:31;;;;;;;6.47;5.10;;;;;;;-0.89;100.00;100571.06;5092119;28;20040;-93
2023/02/14 04:52:57;;;;;;;7.15;5.43;;;;;;;-0.74;100.00;100567.34;5093535;28;20059;-93
2023/02/14 04:55:24;;;;;;;5.95;5.35;;;;;;;-0.64;100.00;100549.56;5092506;28;21061;-92
2023/02/14 04:57:50;;;;;;;7.63;5.75;;;;;;;-0.51;100.00;100552.75;5091633;28;20043;-94
2023/02/14 05:00:17;;;;;;;7.53;5.60;;;;;;;-0.43;100.00;100562.75;5097435;28;20048;-93
2023/02/14 05:02:43;;;;;;;8.20;5.75;;;;;;;-0.50;100.00;100570.22;5091189;28;20059;-92
2023/02/14 05:05:09;;;;;;;7.85;6.28;;;;;;;-0.67;100.00;100565.13;5093233;28;20048;-92
2023/02/14 05:07:34;;;;;;;8.00;5.80;;;;;;;-0.88;100.00;100545.81;5096705;28;20484;-92
2023/02/14 05:10:00;;;;;;;6.70;5.55;;;;;;;-0.85;100.00;100545.94;5099324;28;20093;-92
2023/02/14 05:12:27;;;;;;;7.30;5.47;;;;;;;-0.89;100.00;100562.28;5094248;28;20176;-92
2023/02/14 05:14:54;;;;;;;7.72;5.63;;;;;;;-0.88;100.00;100577.16;5095650;28;20497;-93
2023/02/14 05:17:20;;;;;;;7.10;5.50;;;;;;;-1.01;100.00;100564.34;5092218;28;20048;-92
2023/02/14 05:19:46;;;;;;;7.70;5.82;;;;;;;-1.07;100.00;100559.72;5094359;28;20036;-93
2023/02/14 05:22:12;;;;;;;10.65;5.90;;;;;;;-1.16;100.00;100568.00;5092928;28;20485;-93
2023/02/14 05:24:38;;;;;;;8.10;5.90;;;;;;;-1.08;100.00;100563.16;5094971;28;20496;-93
2023/02/14 05:27:04;;;;;;;7.70;6.22;;;;;;;-0.99;100.00;100562.69;5095324;28;20047;-93
2023/02/14 05:29:31;;;;;;;6.93;5.63;;;;;;;-1.08;100.00;100560.53;5094580;28;20044;-93
2023/02/14 05:31:57;;;;;;;7.35;5.68;;;;;;;-1.16;100.00;100561.88;5087072;28;20040;-93
2023/02/14 05:34:22;;;;;;;7.80;5.85;;;;;;;-1.18;100.00;100580.06;5079249;28;20135;-92
2023/02/14 05:36:48;;;;;;;7.82;5.97;;;;;;;-1.34;100.00;100564.50;5085453;28;20040;-92
2023/02/14 05:39:14;;;;;;;7.60;5.88;;;;;;;-1.27;100.00;100577.91;5079090;28;20070;-92
2023/02/14 05:41:40;;;;;;;7.57;6.10;;;;;;;-1.34;100.00;100577.53;5087319;28;20075;-93
2023/02/14 05:44:06;;;;;;;7.88;5.78;;;;;;;-1.35;100.00;100579.22;5079086;28;20041;-92
2023/02/14 05:46:33;;;;;;;8.10;6.07;;;;;;;-1.33;100.00;100571.50;5083170;28;21196;-93
2023/02/14 05:48:59;;;;;;;6.70;5.55;;;;;;;-1.23;100.00;100585.91;5082092;28;20557;-93
2023/02/14 05:51:25;;;;;;;8.25;6.63;;;;;;;-1.08;100.00;100578.81;5079459;28;20127;-93
2023/02/14 05:53:51;;;;;;;8.77;6.53;;;;;;;-1.30;100.00;100561.19;5083723;28;20067;-91
2023/02/14 05:56:16;;;;;;;8.85;6.13;;;;;;;-1.31;100.00;100564.63;5084032;28;20179;-93
2023/02/14 05:58:42;;;;;;;7.15;5.30;;;;;;;-1.23;100.00;100586.78;5085503;28;20053;-92
2023/02/14 06:01:08;;;;;;;8.05;5.25;;;;;;;-1.41;100.00;100560.69;5079497;28;20040;-93
2023/02/14 06:03:36;;;;;;;8.88;6.07;;;;;;;-1.35;100.00;100583.56;5082981;28;20143;-93
2023/02/14 06:06:02;;;;;;;9.70;5.80;;;;;;;-1.37;100.00;100585.19;5087439;28;20036;-93
2023/02/14 06:08:27;;;;;;;8.23;6.05;;;;;;;-1.46;100.00;100581.31;5076975;28;20052;-93
2023/02/14 06:10:53;;;;;;;9.55;5.85;;;;;;;-1.38;100.00;100599.97;5082271;28;20072;-91
2023/02/14 06:13:19;;;;;;;8.68;6.25;;;;;;;-1.39;100.00;100586.84;5077767;28;20509;-94
2023/02/14 06:15:45;;;;;;;9.27;6.30;;;;;;;-1.44;100.00;100576.16;5078058;28;21343;-93
2023/02/14 06:18:11;;;;;;;9.30;6.35;;;;;;;-1.35;100.00;100592.28;5080616;28;20098;-92
2023/02/14 06:20:38;;;;;;;9.07;6.53;;;;;;;-1.35;100.00;100597.50;5077820;28;20117;-94
2023/02/14 06:23:04;;;;;;;9.18;6.93;;;;;;;-1.44;100.00;100581.38;5084852;28;20048;-91
2023/02/14 06:25:30;;;;;;;10.00;7.13;;;;;;;-1.53;100.00;100560.94;5081214;28;20044;-92
2023/02/14 06:27:56;;;;;;;9.98;7.03;;;;;;;-1.35;100.00;100597.50;5079216;28;20375;-92
2023/02/14 06:30:22;;;;;;;10.32;7.10;;;;;;;-1.39;100.00;100595.56;5081649;28;20040;-93
2023/02/14 06:32:48;;;;;;;10.02;6.78;;;;;;;-1.42;100.00;100581.47;5080220;28;20048;-93
2023/02/14 06:35:14;;;;;;;15.85;9.07;;;;;;;-1.40;100.00;100572.91;5083013;28;20044;-92
2023/02/14 06:37:43;;;;;;;13.85;9.45;;;;;;;-1.24;100.00;100582.38;5078227;28;20490;-93
2023/02/14 06:40:11;;;;;;;15.32;9.40;;;;;;;-1.28;100.00;100578.75;5082221;28;20405;-93
2023/02/14 06:42:37;;;;;;;8.68;6.82;;;;;;;-1.25;100.00;100575.38;5077610;28;20040;-91
2023/02/14 06:45:04;;;;;;;13.07;8.23;;;;;;;-1.14;100.00;100570.69;5078799;28;20097;-93
2023/02/14 06:47:30;;;;;;;12.63;9.07;;;;;;;-0.94;100.00;100582.97;5081174;28;20070;-93
2023/02/14 06:49:58;;;;;;;15.65;8.93;;;;;;;-0.92;100.00;100581.34;5074132;28;20390;-93
2023/02/14 06:52:24;;;;;;;12.50;8.00;;;;;;;-0.78;100.00;100579.41;5078572;28;20033;-93
2023/02/14 06:54:51;;;;;;;12.73;8.40;;;;;;;-0.70;100.00;100580.63;5074566;28;20563;-93
2023/02/14 06:57:17;;;;;;;18.20;9.95;;;;;;;-0.65;100.00;100568.69;5080291;28;20032;-93
2023/02/14 06:59:43;;;;;;;15.00;8.13;;;;;;;-0.47;100.00;100588.66;5075524;28;20147;-93
2023/02/14 07:02:10;;;;;;;12.68;9.18;;;;;;;-0.44;100.00;100586.19;5078730;28;20037;-92
2023/02/14 07:04:35;;;;;;;14.50;9.10;;;;;;;-0.40;100.00;100590.72;5081598;28;20155;-93
2023/02/14 07:07:02;;;;;;;13.95;8.63;;;;;;;-0.40;100.00;100561.97;5079890;28;20518;-93
2023/02/14 07:09:27;;;;;;;14.98;9.32;;;;;;;-0.11;100.00;100578.06;5073718;28;20064;-93
2023/02/14 07:11:55;;;;;;;14.27;9.60;;;;;;;-0.10;100.00;100578.16;5076791;28;20047;-93
2023/02/14 07:14:21;;;;;;;14.93;9.98;;;;;;;-0.03;100.00;100587.16;5080917;28;20498;-93
2023/02/14 07:16:47;;;;;;;15.40;9.43;;;;;;;-0.10;100.00;100575.53;5078878;28;20044;-93
2023/02/14 07:19:12;;;;;;;14.45;9.80;;;;;;;0.01;100.00;100601.28;5075292;28;20076;-94
2023/02/14 07:21:38;;;;;;;18.80;11.13;;;;;;;0.02;100.00;100590.88;5084081;28;20044;-93
2023/02/14 07:24:04;;;;;;;16.02;10.32;;;;;;;0.03;100.00;100581.34;5082692;28;20127;-93
2023/02/14 07:26:30;;;;;;;17.77;10.55;;;;;;;0.07;100.00;100573.69;5078795;28;20094;-92
2023/02/14 07:28:58;;;;;;;17.55;9.70;;;;;;;0.31;100.00;100586.06;5083008;28;20043;-93
2023/02/14 07:31:23;;;;;;;15.77;10.55;;;;;;;0.57;100.00;100602.88;5081160;28;20041;-93
2023/02/14 07:33:50;;;;;;;15.32;9.98;;;;;;;0.52;100.00;100581.72;5076266;28;20457;-93
2023/02/14 07:36:16;;;;;;;16.52;11.45;;;;;;;0.54;100.00;100572.22;5084227;28;20044;-95
2023/02/14 07:38:42;;;;;;;23.30;15.15;;;;;;;0.80;100.00;100589.03;5081330;28;20093;-93
2023/02/14 07:41:07;;;;;;;20.83;13.23;;;;;;;0.93;100.00;100576.41;5078576;28;20041;-94
2023/02/14 07:43:33;;;;;;;16.60;10.45;;;;;;;1.05;100.00;100576.03;5073805;28;20044;-92
2023/02/14 07:46:02;;;;;;;14.10;9.98;;;;;;;1.19;98.27;100580.06;5081915;28;20036;-94
2023/02/14 07:48:29;;;;;;;13.43;9.70;;;;;;;1.21;98.53;100573.16;5077020;28;20065;-93
2023/02/14 07:50:56;;;;;;;19.15;11.88;;;;;;;1.42;98.18;100568.75;5083207;28;20036;-93
2023/02/14 07:53:22;;;;;;;16.85;11.48;;;;;;;1.61;97.14;100574.72;5078908;28;20406;-93
2023/02/14 07:55:49;;;;;;;14.20;10.68;;;;;;;1.76;96.12;100584.91;5077739;28;20043;-93
2023/02/14 07:58:14;;;;;;;17.48;12.13;;;;;;;1.73;95.08;100559.44;5078355;28;20097;-93
2023/02/14 08:00:40;;;;;;;17.85;12.10;;;;;;;2.01;94.12;100581.44;5072767;28;20044;-94
2023/02/14 08:03:08;;;;;;;16.50;11.05;;;;;;;2.03;91.54;100566.66;5086960;28;20036;-93
2023/02/14 08:05:34;;;;;;;16.52;11.25;;;;;;;2.09;91.88;100568.59;5086894;28;20074;-93
2023/02/14 08:08:00;;;;;;;16.35;11.23;;;;;;;2.13;89.82;100566.16;5081764;28;20101;-94
2023/02/14 08:10:26;;;;;;;14.82;10.20;;;;;;;2.14;90.83;100557.41;5083115;28;20436;-93
2023/02/14 08:12:59;;;;;;;14.80;10.55;;;;;;;2.32;90.95;100564.16;5078447;28;20049;-93
2023/02/14 08:18:26;;;;;;;18.63;12.07;;;;;;;2.71;89.11;100561.09;5107112;27;20389;-92
2023/02/14 08:20:52;;;;;;;18.95;12.43;;;;;;;2.85;88.50;100559.84;5095330;28;20040;-93
2023/02/14 08:23:19;;;;;;;21.50;13.05;;;;;;;3.03;87.94;100554.28;5096024;28;20135;-93
2023/02/14 08:25:45;;;;;;;16.02;11.65;;;;;;;3.12;86.59;100519.50;5095961;28;20528;-94
2023/02/14 08:28:12;;;;;;;18.70;12.52;;;;;;;3.31;85.04;100528.84;5094932;28;20032;-93
2023/02/14 08:30:38;;;;;;;18.63;11.77;;;;;;;3.39;84.46;100519.47;5098224;28;20047;-92
2023/02/14 08:33:04;;;;;;;19.58;12.57;;;;;;;3.48;83.46;100525.00;5096604;28;20036;-93
2023/02/14 08:35:32;;;;;;;17.35;12.40;;;;;;;3.68;82.98;100522.94;5092661;28;20054;-92
2023/02/14 08:37:58;;;;;;;20.55;11.93;;;;;;;3.73;81.32;100523.97;5094781;28;20036;-93
2023/02/14 08:40:24;;;;;;;18.52;12.15;;;;;;;3.87;80.79;100527.88;5098675;28;20040;-93
2023/02/14 08:42:50;;;;;;;17.60;12.82;;;;;;;3.90;80.69;100530.63;5095732;28;20040;-93
2023/02/14 08:45:16;;;;;;;22.60;13.48;;;;;;;3.98;81.12;100535.19;5094566;28;20165;-93
2023/02/14 08:47:42;;;;;;;25.05;13.30;;;;;;;4.05;81.23;100521.34;5102135;28;20418;-93
2023/02/14 08:50:10;;;;;;;20.77;12.77;;;;;;;4.23;80.24;100515.66;5098817;28;20097;-92
2023/02/14 08:52:37;;;;;;;20.52;12.77;;;;;;;4.31;79.99;100504.50;5093678;28;20036;-94
2023/02/14 08:55:04;;;;;;;21.15;13.38;;;;;;;4.61;78.98;100526.31;5095967;28;20040;-93
2023/02/14 08:57:30;;;;;;;20.73;13.52;;;;;;;4.74;78.04;100521.38;5091366;28;20050;-93
2023/02/14 08:59:55;;;;;;;21.40;12.90;;;;;;;4.76;77.08;100497.72;5091519;28;20407;-94
2023/02/14 09:02:21;;;;;;;21.83;14.52;;;;;;;4.94;76.32;100510.44;5092635;28;20036;-93
2023/02/14 09:04:47;;;;;;;23.77;15.63;;;;;;;4.89;76.74;100486.59;5098244;28;20044;-93
2023/02/14 09:07:13;;;;;;;23.10;14.48;;;;;;;5.05;76.07;100482.59;5092999;28;20052;-91
2023/02/14 09:09:40;;;;;;;22.88;14.13;;;;;;;5.30;75.71;100501.59;5098184;28;20465;-92
2023/02/14 09:12:08;;;;;;;24.27;13.45;;;;;;;5.46;75.02;100503.69;5097779;28;20068;-93
2023/02/14 09:14:39;;;;;;;23.23;13.77;;;;;;;5.57;74.88;100501.28;5098712;28;21258;-93
2023/02/14 09:17:05;;;;;;;21.48;13.75;;;;;;;5.58;73.87;100475.81;5092836;28;20045;-93
2023/02/14 09:19:31;;;;;;;26.50;13.52;;;;;;;5.62;73.75;100464.44;5098582;28;20072;-93
2023/02/14 09:21:57;;;;;;;19.33;13.15;;;;;;;5.82;73.03;100483.31;5095344;28;20131;-94
2023/02/14 09:24:23;;;;;;;21.50;14.30;;;;;;;5.92;72.73;100485.25;5092212;28;20063;-93
2023/02/14 09:26:50;;;;;;;21.27;13.45;;;;;;;6.00;72.88;100496.00;5100729;28;20052;-94
2023/02/14 09:29:16;;;;;;;21.90;13.35;;;;;;;6.18;72.18;100491.09;5082165;28;20044;-92
2023/02/14 09:31:42;;;;;;;23.80;14.25;;;;;;;6.29;71.52;100486.88;5076844;28;20559;-92
2023/02/14 09:34:08;;;;;;;19.67;13.23;;;;;;;6.19;71.66;100492.84;5079115;28;20036;-93
2023/02/14 09:39:32;;;;;;;21.33;13.75;;;;;;;6.40;71.88;100492.34;5114955;27;1370719;-92
2023/02/14 09:42:21;;;;;;;26.83;15.90;;;;;;;6.53;70.72;100483.78;5149503;27;20046;-92
2023/02/14 09:44:50;;;;;;;;;;;;;;;6.66;70.88;100490.16;5129284;27;20049;-93
2023/02/14 09:47:22;;;;;;;21.53;14.77;;;;;;;6.61;71.13;100488.28;5124692;27;20280;-92
2023/02/14 09:49:51;;;;;;;26.08;15.95;;;;;;;6.69;70.20;100486.66;5127118;27;20302;-92
2023/02/14 09:52:19;;;;;;;27.92;16.60;;;;;;;6.77;69.84;100482.41;5125956;27;20050;-93
2023/02/14 09:54:53;;;;;;;23.37;16.43;;;;;;;6.89;70.30;100486.97;5124277;27;20039;-92
2023/02/14 09:57:25;;;;;;;26.75;17.15;;;;;;;6.96;69.77;100478.25;5121106;27;20043;-92
2023/02/14 09:59:56;;;;;;;29.33;17.23;;;;;;;6.92;70.15;100481.75;5123817;27;20063;-91
2023/02/14 10:02:37;;;;;;;25.55;16.75;;;;;;;6.98;69.66;100492.41;5127977;27;20043;-91
2023/02/14 10:05:12;;;;;;;28.75;17.50;;;;;;;6.99;71.60;100487.13;5125948;27;20035;-93
2023/02/14 10:07:49;;;;;;;28.23;17.85;;;;;;;6.82;71.38;100469.25;5123162;27;20051;-91
2023/02/14 10:10:22;;;;;;;27.85;18.08;;;;;;;7.02;71.30;100478.34;5127637;27;20062;-92
2023/02/14 10:12:55;;;;;;;27.27;18.23;;;;;;;7.15;71.28;100472.38;5127985;27;20035;-93
2023/02/14 10:15:25;;;;;;;28.38;17.58;;;;;;;7.35;71.44;100477.03;5116055;28;20787;-93
2023/02/14 10:17:54;;;;;;;;;;;;;;;7.14;71.99;100475.91;5123172;27;20035;-92
2023/02/14 10:20:25;;;;;;;30.50;18.00;;;;;;;6.98;73.42;100448.34;5128372;27;20002;-92
2023/02/14 10:22:58;;;;;;;33.13;18.73;;;;;;;7.24;71.95;100453.09;5122166;27;20412;-92
2023/02/14 10:25:32;;;;;;;26.75;17.50;;;;;;;7.38;71.58;100440.06;5120027;27;20400;-91
2023/02/14 10:28:01;;;;;;;29.73;18.85;;;;;;;7.60;70.75;100436.78;5123794;27;20043;-92
2023/02/14 10:30:36;;;;;;;31.40;19.80;;;;;;;7.76;70.30;100443.16;5122686;27;20036;-93
2023/02/14 10:33:10;;;;;;;31.88;19.25;;;;;;;7.86;70.00;100430.03;5126527;27;20035;-92
2023/02/14 10:35:43;;;;;;;29.45;19.70;;;;;;;7.73;68.90;100405.16;5127929;27;20404;-93
2023/02/14 10:38:26;;;;;;;31.38;19.02;;;;;;;7.97;70.03;100426.59;5123269;27;20100;-93
2023/02/14 10:41:09;;;;;;;33.53;20.73;;;;;;;8.10;69.35;100432.91;5127630;27;20043;-92
2023/02/14 10:43:42;;;;;;;29.90;20.42;;;;;;;8.13;69.12;100421.44;5123293;28;20035;-94
2023/02/14 10:46:18;;;;;;;33.05;20.38;;;;;;;8.20;68.85;100415.34;5123532;27;20063;-93
2023/02/14 10:48:55;;;;;;;33.70;20.42;;;;;;;8.22;68.95;100408.28;5121855;27;20035;-94
2023/02/14 10:51:29;;;;;;;37.25;20.83;;;;;;;8.26;69.03;100407.41;5104199;27;20052;-93
2023/02/14 10:54:04;;;;;;;32.80;21.13;;;;;;;8.21;68.14;100382.66;5110016;27;20100;-93
2023/02/14 10:56:37;;;;;;;31.27;20.70;;;;;;;8.25;68.28;100397.72;5109850;27;20055;-93
2023/02/14 10:59:16;;;;;;;30.85;20.50;;;;;;;8.31;68.14;100394.25;5111567;28;20063;-93
2023/02/14 11:01:43;;;;;;;30.73;20.27;;;;;;;8.36;68.59;100409.28;5109650;27;20377;-92
2023/02/14 11:04:11;;;;;;;33.38;20.95;;;;;;;8.36;69.17;100390.72;5114703;27;20043;-93
2023/02/14 11:06:37;;;;;;;31.05;20.63;;;;;;;8.31;67.92;100380.97;5113078;27;20108;-93
2023/02/14 11:09:03;;;;;;;31.50;21.02;;;;;;;8.44;68.07;100380.22;5113510;27;20134;-94
2023/02/14 11:11:36;;;;;;;33.47;20.73;;;;;;;8.53;67.86;100393.53;5111770;27;20035;-93
2023/02/14 11:14:21;;;;;;;32.60;20.38;;;;;;;8.45;67.60;100362.56;5115923;27;20054;-93
2023/02/14 11:16:50;;;;;;;29.77;19.75;;;;;;;8.36;67.33;100348.31;5110782;27;20111;-92
2023/02/14 11:19:20;;;;;;;;;;;;;;;8.58;68.45;100388.28;5110736;27;20716;-93
2023/02/14 11:21:48;;;;;;;30.80;20.05;;;;;;;8.51;68.78;100360.84;5120061;27;19919;-93
2023/02/14 11:24:24;;;;;;;32.85;20.85;;;;;;;8.69;68.09;100375.09;5116772;27;20043;-92
2023/02/14 11:26:54;;;;;;;34.85;21.13;;;;;;;8.53;68.15;100340.53;5110220;27;20499;-92
2023/02/14 11:29:26;;;;;;;33.80;19.88;;;;;;;8.71;68.33;100360.94;5099458;28;20040;-95
2023/02/14 11:31:52;;;;;;;36.78;21.42;;;;;;;8.71;68.01;100347.69;5099723;28;20382;-95
2023/02/14 11:34:31;;;;;;;32.60;20.52;;;;;;;8.90;68.33;100348.69;5118610;27;20130;-95
2023/02/14 11:36:58;;;;;;;31.02;20.00;;;;;;;8.98;68.57;100354.03;5120710;27;20054;-91
2023/02/14 11:39:29;;;;;;;33.28;21.13;;;;;;;8.99;66.40;100327.50;5117640;27;20055;-94
2023/02/14 11:41:59;;;;;;;34.58;21.58;;;;;;;9.01;66.93;100330.16;5110457;27;20047;-92
2023/02/14 11:44:27;;;;;;;35.88;20.42;;;;;;;9.25;66.75;100340.00;5110905;28;20039;-93
2023/02/14 11:46:55;;;;;;;36.63;22.80;;;;;;;9.23;67.12;100326.69;5107547;28;20085;-94
2023/02/14 11:49:27;;;;;;;33.45;20.52;;;;;;;9.25;67.06;100316.09;5111277;27;20035;-94
2023/02/14 11:51:54;;;;;;;31.98;21.02;;;;;;;9.30;67.01;100314.34;5119682;27;20130;-95
2023/02/14 11:54:28;;;;;;;30.02;19.38;;;;;;;9.30;66.30;100298.41;5107623;27;20144;-93
2023/02/14 11:57:02;;;;;;;30.15;19.73;;;;;;;9.37;66.42;100296.69;5099409;28;20040;-94
2023/02/14 11:59:31;;;;;;;32.17;20.60;;;;;;;9.42;66.12;100286.94;5114763;27;20046;-93